Sweet Briar, Virginia
Current Conditions -  °F | °C
As of 8:54 PM on Saturday 25 Oct 2014 (Local Time) from KLYH Reporting Station
Clear Clear  
Wind Chill: 61°   Ceiling: Unl
Heat Index: 61°   Visibility: 10mi
Dew Point: 44°   Wind: 3mph
Humidity: 54%   Direction: 260°W
Pressure: 29.85"   Gusts: NA
Location:  37.55°N, 79.07°W
Report Text: KLYH 260054Z 26003KT 10SM CLR 16/07 A2985 RMK AO2 SLP108 T01610067
Loading
Personal Weather Stations






























Interactive Weather Map
Tropical Storm Tracking
New forecast layout! Learn more

10-Day Weather Forecast

Advertisements
Track Severe Weather on mobile